YSWG

Details ICAO YSWG (WGA)
Name Wagga Wagga
Region Australia
Timezone Australia/Sydney (UTC+11.0)
Plans Departing 18
Arriving 25
Stats Elevation 724 ft / 221 m (AMSL)
Location -35.163952° 147.466157°
Runways 2
Magnetic Variation 11.689° E
Sunrise 2017-12-13 18:51:05 UTC / 2017-12-14 05:51:05 Local
Sunset 2017-12-14 09:20:59 UTC / 2017-12-14 20:20:59 Local
Advertisement - Login to hide

Runways

ID Width Length Bearing (true) Bearing (mag) Surface Threshold Offset Overrun Length
05 148 ft / 45 m 5,790 ft / 1,765 m 62.00° 50.31° Asphalt 0 ft / 0 m 0 ft / 0 m
12 98 ft / 30 m 5,002 ft / 1,525 m 125.35° 113.66° Grass 0 ft / 0 m 0 ft / 0 m
23 148 ft / 45 m 5,790 ft / 1,765 m 241.99° 230.30° Asphalt 0 ft / 0 m 0 ft / 0 m
30 98 ft / 30 m 5,002 ft / 1,525 m 305.34° 293.65° Grass 0 ft / 0 m 0 ft / 0 m

Map

Weather


0- 5 10 15 20 25 30 35+ Temperature / ° C

Clouds and Precipitation
Forecast for 2017-12-14 00:00 UTC. Updated an hour ago

Ground ~20,000 ft ~40,000 ft Winds

METAR

YSWG 132230Z 34017G28KT CAVOK 32/10 Q1006

TAF

Not found

Frequencies

Unicom 122.80 MHz ACTIVATE LIGHTS ONLY MULT
Tower 119.50 MHz MELBOURNE CNTR
Unicom 118.20 MHz WAGGA WAGGA MULT
Warning: Do not use this data for real-world aviation or navigation. No guarantee of current accuracy is given.